createdAt,value
2023-04-28T00:00:18.277Z,6.47
2023-04-28T00:05:23.138Z,6.28
2023-04-28T00:10:28.036Z,6.75
2023-04-28T00:15:31.712Z,6.77
2023-04-28T00:20:35.038Z,7.20
2023-04-28T00:25:39.992Z,6.82
2023-04-28T00:30:43.308Z,6.97
2023-04-28T00:35:46.827Z,6.68
2023-04-28T00:40:51.559Z,6.85
2023-04-28T00:45:55.200Z,6.90
2023-04-28T00:50:58.602Z,6.78
2023-04-28T00:56:04.108Z,6.80
2023-04-28T01:01:09.876Z,6.55
2023-04-28T01:06:14.080Z,6.60
2023-04-28T01:11:18.964Z,6.25
2023-04-28T01:16:45.369Z,6.72
2023-04-28T01:21:48.831Z,6.72
2023-04-28T01:26:57.763Z,6.30
2023-04-28T01:32:01.371Z,6.82
2023-04-28T01:37:04.950Z,6.50
2023-04-28T01:42:09.881Z,6.70
2023-04-28T01:47:13.592Z,6.75
2023-04-28T01:52:16.968Z,6.63
2023-04-28T01:57:22.504Z,6.50
2023-04-28T02:02:28.303Z,6.50
2023-04-28T02:07:31.842Z,5.97
2023-04-28T02:12:36.700Z,6.10
2023-04-28T02:17:40.282Z,6.30
2023-04-28T02:22:43.831Z,5.90
2023-04-28T02:27:48.610Z,6.05
2023-04-28T02:32:52.131Z,5.90
2023-04-28T02:37:55.571Z,5.78
2023-04-28T02:43:00.696Z,6.10
2023-04-28T02:48:04.762Z,6.00
2023-04-28T02:53:08.459Z,5.87
2023-04-28T02:58:13.442Z,5.65
2023-04-28T03:03:17.137Z,6.00
2023-04-28T03:08:21.379Z,5.90
2023-04-28T03:13:27.318Z,5.60
2023-04-28T03:18:31.371Z,5.70
2023-04-28T03:23:35.345Z,5.57
2023-04-28T03:28:40.544Z,5.70
2023-04-28T03:33:45.665Z,5.22
2023-04-28T03:38:49.723Z,5.40
2023-04-28T03:43:56.802Z,5.45
2023-04-28T03:49:08.524Z,5.43
2023-04-28T03:54:12.541Z,5.38
2023-04-28T03:59:18.074Z,5.10
2023-04-28T04:04:21.862Z,5.00
2023-04-28T04:09:25.911Z,5.00
2023-04-28T04:14:33.475Z,5.03
2023-04-28T04:19:37.306Z,4.70
2023-04-28T04:24:43.569Z,4.90
2023-04-28T04:29:49.189Z,4.95
2023-04-28T04:34:52.996Z,4.80
2023-04-28T04:39:57.018Z,4.70
2023-04-28T04:45:01.995Z,4.50
2023-04-28T04:50:08.360Z,4.47
2023-04-28T04:55:13.609Z,4.88
2023-04-28T05:00:21.235Z,4.50
2023-04-28T05:05:25.276Z,4.80
2023-04-28T05:10:41.625Z,4.82
2023-04-28T05:15:47.308Z,5.10
2023-04-28T05:21:03.483Z,5.10
2023-04-28T05:26:07.285Z,4.85
2023-04-28T05:31:13.375Z,5.00
2023-04-28T05:36:17.306Z,4.93
2023-04-28T05:41:22.811Z,5.00
2023-04-28T05:46:30.965Z,5.25
2023-04-28T05:51:36.279Z,4.80
2023-04-28T05:56:39.982Z,5.32
2023-04-28T06:01:46.331Z,4.70
2023-04-28T06:06:50.514Z,5.07
2023-04-28T06:11:53.954Z,5.17
2023-04-28T06:16:58.758Z,5.60
2023-04-28T06:22:02.177Z,5.60
2023-04-28T06:27:07.132Z,5.85
2023-04-28T06:32:11.806Z,5.72
2023-04-28T06:37:15.720Z,5.47
2023-04-28T06:42:20.495Z,5.87
2023-04-28T06:47:39.590Z,5.63
2023-04-28T06:52:45.715Z,6.55
2023-04-28T06:57:49.227Z,7.10
2023-04-28T07:02:54.912Z,6.32
2023-04-28T07:07:58.782Z,6.30
2023-04-28T07:13:03.011Z,5.93
2023-04-28T07:18:08.261Z,5.50
2023-04-28T07:23:11.730Z,5.78
2023-04-28T07:28:15.177Z,6.07
2023-04-28T07:33:20.162Z,6.60
2023-04-28T07:38:23.543Z,7.65
2023-04-28T07:43:27.005Z,7.55
2023-04-28T07:48:32.585Z,7.70
2023-04-28T07:53:36.485Z,7.65
2023-04-28T07:58:42.166Z,7.30
2023-04-28T08:03:48.082Z,7.80
2023-04-28T08:08:53.631Z,9.70
2023-04-28T08:14:01.294Z,7.85
2023-04-28T08:19:06.272Z,8.18
2023-04-28T08:24:10.908Z,8.60
2023-04-28T08:29:14.312Z,10.73
2023-04-28T08:34:19.131Z,11.13
2023-04-28T08:39:23.671Z,11.48
2023-04-28T08:44:27.174Z,11.67
2023-04-28T08:49:37.262Z,12.00
2023-04-28T08:54:41.805Z,10.20
2023-04-28T08:59:47.246Z,10.77
2023-04-28T09:04:52.334Z,9.80
2023-04-28T09:10:21.515Z,9.70
2023-04-28T09:15:31.846Z,10.07
2023-04-28T09:20:38.385Z,12.15
2023-04-28T09:25:41.824Z,13.02
2023-04-28T09:30:45.121Z,12.00
2023-04-28T09:35:49.948Z,14.05
2023-04-28T09:40:55.610Z,14.20
2023-04-28T09:46:00.812Z,14.38
2023-04-28T09:51:07.913Z,15.68
2023-04-28T09:56:11.947Z,15.88
2023-04-28T10:01:15.856Z,17.25
2023-04-28T10:06:20.934Z,15.33
2023-04-28T10:11:25.342Z,16.17
2023-04-28T10:16:32.742Z,17.00
2023-04-28T10:21:49.460Z,15.43
2023-04-28T10:27:05.421Z,16.80
2023-04-28T10:32:23.571Z,18.40
2023-04-28T10:37:56.686Z,17.20
2023-04-28T10:43:01.603Z,18.30
2023-04-28T10:48:06.461Z,19.13
2023-04-28T10:53:10.051Z,19.70
2023-04-28T10:58:37.721Z,19.20
2023-04-28T11:03:51.265Z,16.67
2023-04-28T11:08:56.910Z,17.23
2023-04-28T11:14:36.016Z,16.40
2023-04-28T11:19:41.766Z,15.23
2023-04-28T11:24:58.109Z,16.83
2023-04-28T11:30:02.889Z,18.65
2023-04-28T11:35:09.866Z,17.50
2023-04-28T11:40:17.645Z,16.00
2023-04-28T11:45:26.543Z,15.98
2023-04-28T11:50:37.513Z,13.70
2023-04-28T11:55:40.841Z,14.10
2023-04-28T12:00:46.180Z,12.60
2023-04-28T12:05:49.682Z,11.85
2023-04-28T12:11:12.856Z,12.97
2023-04-28T12:16:45.096Z,13.38
2023-04-28T12:22:02.122Z,12.27
2023-04-28T12:27:21.764Z,12.07
2023-04-28T12:32:40.809Z,12.03
2023-04-28T12:37:44.930Z,10.10
2023-04-28T12:42:49.132Z,10.25
2023-04-28T12:47:53.947Z,9.73
2023-04-28T12:52:57.972Z,7.28
2023-04-28T12:58:01.318Z,7.63
2023-04-28T13:03:06.545Z,8.25
2023-04-28T13:08:11.205Z,7.68
2023-04-28T13:13:14.600Z,6.30
2023-04-28T13:18:19.418Z,5.70
2023-04-28T13:23:22.855Z,5.87
2023-04-28T13:28:26.199Z,10.07
2023-04-28T13:33:31.557Z,9.73
2023-04-28T13:38:34.848Z,10.70
2023-04-28T13:43:38.161Z,9.10
2023-04-28T13:48:43.010Z,8.30
2023-04-28T13:53:46.735Z,8.50
2023-04-28T13:58:50.062Z,9.37
2023-04-28T14:03:54.906Z,11.43
2023-04-28T14:08:59.419Z,9.90
2023-04-28T14:14:02.897Z,9.15
2023-04-28T14:19:08.581Z,9.00
2023-04-28T14:24:11.989Z,10.57
2023-04-28T14:29:15.449Z,10.00
2023-04-28T14:34:20.257Z,10.23
2023-04-28T14:39:24.258Z,9.00
2023-04-28T14:44:27.561Z,11.00
2023-04-28T14:49:32.559Z,11.93
2023-04-28T14:54:36.219Z,13.68
2023-04-28T14:59:39.489Z,14.77
2023-04-28T15:04:44.702Z,15.53
2023-04-28T15:09:48.151Z,16.48
2023-04-28T15:14:53.678Z,17.43
2023-04-28T15:20:00.779Z,15.70
2023-04-28T15:25:04.213Z,17.70
2023-04-28T15:30:10.053Z,20.67
2023-04-28T15:35:14.875Z,19.90
2023-04-28T15:40:19.394Z,17.97
2023-04-28T15:45:23.486Z,20.90
2023-04-28T15:50:28.283Z,19.65
2023-04-28T15:55:31.695Z,18.45
2023-04-28T16:00:35.198Z,21.17
2023-04-28T16:05:40.225Z,21.73
2023-04-28T16:10:44.184Z,19.83
2023-04-28T16:15:49.981Z,19.00
2023-04-28T16:20:55.164Z,21.00
2023-04-28T16:25:59.016Z,19.53
2023-04-28T16:31:02.363Z,22.55
2023-04-28T16:36:08.709Z,22.27
2023-04-28T16:41:12.417Z,20.73
2023-04-28T16:46:16.250Z,23.17
2023-04-28T16:51:22.194Z,21.33
2023-04-28T16:56:25.975Z,23.33
2023-04-28T17:01:30.622Z,25.55
2023-04-28T17:06:36.704Z,25.27
2023-04-28T17:11:40.465Z,28.02
2023-04-28T17:16:44.934Z,27.80
2023-04-28T17:21:52.897Z,27.07
2023-04-28T17:26:56.420Z,26.35
2023-04-28T17:31:59.715Z,25.13
2023-04-28T17:37:04.889Z,25.87
2023-04-28T17:42:09.163Z,31.03
2023-04-28T17:47:14.107Z,27.73
2023-04-28T17:52:20.819Z,33.10
2023-04-28T17:57:24.213Z,31.63
2023-04-28T18:02:27.740Z,29.17
2023-04-28T18:07:32.700Z,30.20
2023-04-28T18:12:36.294Z,32.22
2023-04-28T18:17:39.707Z,31.60
2023-04-28T18:22:44.577Z,29.17
2023-04-28T18:27:47.904Z,29.80
2023-04-28T18:32:52.271Z,28.30
2023-04-28T18:37:57.203Z,28.92
2023-04-28T18:43:02.135Z,27.45
2023-04-28T18:48:06.057Z,28.27
2023-04-28T18:53:11.852Z,27.00
2023-04-28T18:58:15.738Z,25.43
2023-04-28T19:03:19.325Z,29.17
2023-04-28T19:08:24.490Z,31.50
2023-04-28T19:13:27.835Z,31.27
2023-04-28T19:18:32.004Z,28.73
2023-04-28T19:23:36.744Z,26.30
2023-04-28T19:28:40.142Z,28.17
2023-04-28T19:33:45.640Z,27.43
2023-04-28T19:38:51.662Z,27.63
2023-04-28T19:43:55.805Z,24.43
2023-04-28T19:48:59.275Z,24.58
2023-04-28T19:54:04.009Z,26.83
2023-04-28T19:59:07.356Z,27.60
2023-04-28T20:04:10.976Z,29.52
2023-04-28T20:09:16.695Z,30.08
2023-04-28T20:14:21.621Z,25.47
2023-04-28T20:19:25.542Z,25.65
2023-04-28T20:24:30.302Z,24.00
2023-04-28T20:29:37.147Z,23.77
2023-04-28T20:34:41.387Z,25.70
2023-04-28T20:39:47.295Z,25.00
2023-04-28T20:44:51.957Z,26.45
2023-04-28T20:49:55.339Z,26.50
2023-04-28T20:55:00.492Z,26.35
2023-04-28T21:00:04.572Z,28.80
2023-04-28T21:05:08.992Z,26.23
2023-04-28T21:10:14.196Z,23.60
2023-04-28T21:15:17.704Z,20.30
2023-04-28T21:20:21.258Z,22.97
2023-04-28T21:25:26.362Z,20.55
2023-04-28T21:30:30.129Z,18.40
2023-04-28T21:35:33.476Z,13.80
2023-04-28T21:40:38.281Z,9.38
2023-04-28T21:45:41.849Z,6.05
2023-04-28T21:50:45.515Z,5.10
2023-04-28T21:55:50.398Z,3.60
2023-04-28T22:00:54.954Z,3.10
2023-04-28T22:05:59.022Z,3.37
2023-04-28T22:11:04.176Z,2.80
2023-04-28T22:16:07.938Z,2.83
2023-04-28T22:21:13.739Z,2.80
2023-04-28T22:26:19.285Z,3.00
2023-04-28T22:31:22.764Z,3.53
2023-04-28T22:36:26.190Z,3.50
2023-04-28T22:41:31.072Z,3.33
2023-04-28T22:46:34.771Z,3.70
2023-04-28T22:51:38.199Z,3.30
2023-04-28T22:56:42.951Z,3.30
2023-04-28T23:01:46.413Z,3.63
2023-04-28T23:06:49.912Z,3.67
2023-04-28T23:11:54.854Z,3.80
2023-04-28T23:16:58.538Z,4.97
2023-04-28T23:22:01.941Z,5.13
2023-04-28T23:27:06.896Z,5.50
2023-04-28T23:32:10.382Z,5.43
2023-04-28T23:37:13.757Z,5.20
2023-04-28T23:42:21.220Z,5.75
2023-04-28T23:47:24.704Z,5.65
2023-04-28T23:52:28.074Z,5.87
2023-04-28T23:57:32.752Z,5.50
